Etusivu
METAR-TAF:

METAR-TAF

Lentoasemat :

Kuwait, Kuwait

Kuwaitin kansainvälinen lentoasema

Leveyspiiri: 29-13N, Pituuspiiri: 047-59E, korkeus merenpinnasta: 55 m

Tämänhetkinen sää

Tämä raportti tehtiin 51 minuuttia sitten, kello 00.00 UTC
tyyntä
Lämpötila 19°C
Kosteus 83%
Ilmanpaine 1015 hPa
Näkyvyys 10 km tai enemmän
ei pilviä alle 1500 m:ssä eikä cumulonimbus-pilviä

METAR: OKBK 300000Z 00000KT CAVOK 19/16 Q1015 NOSIG

Aika: 03:51 (00:51 UTC)

Sääennuste

Tämä raportti tehtiin 2 tuntia ja 6 minuuttia sitten, kello 22.45 UTC
Ennuste voimassa 30. päivästä klo 00 UTC - 31. päivään klo 06 UTC
Tuuli 3 kn eri suunnista
Näkyvyys: 8000 m
Tulossa
30. päivästä klo 03 UTC - 30. päivään klo 05 UTC
Tuuli 10 kn pohjoisesta

TAF: OKBK 292245Z 3000/3106 VRB03KT 8000 NSC BECMG 3003/3005 35010KT

Säähavainnot ja -ennusteet yli 4000 lentoasemalta (METAR- ja TAF-raportit).

Käytössä olevat sääasemat on merkitty karttaan keltaisilla ja punaisilla pisteillä.

Aseta hiiri pisteen päälle nähdäksesi sääaseman nimen.

Klikkaa sitten nähdäksesi säähavainnot ja -ennusteet.

Kartan vaihtaminen: klikkaa mustalla rastilla varustettuja vihreitä pisteitä, niin voit zoomata sisään; viivalla varustettua vihreää pistettä, niin voit zoomata ulos tai vihreitä nuolia, niin pääset viereisille kartoille.


METAR-TAF: